Time;durP1;ratioP1;P1;durP2;ratioP2;P2;SDS_P1;SDS_P2;PMS_P1;PMS_P2;Temp;Humidity;BMP_temperature;BMP_pressure;BME280_temperature;BME280_humidity;BME280_pressure;Samples;Min_cycle;Max_cycle;Signal;HPM_P1;HPM_P2
2021/03/13 00:01:11;;;;;;;46.42;24.98;;;;;;;-0.25;68.86;101130.03;1747372;81;25759;-58
2021/03/13 00:03:40;;;;;;;42.08;25.52;;;;;;;-0.27;69.01;101140.64;1760472;81;26185;-59
2021/03/13 00:06:09;;;;;;;41.63;23.45;;;;;;;-0.27;68.92;101147.25;1732591;81;26094;-58
2021/03/13 00:08:39;;;;;;;43.10;24.47;;;;;;;-0.27;68.86;101145.08;1713744;82;27546;-58
2021/03/13 00:11:09;;;;;;;48.40;26.57;;;;;;;-0.29;68.80;101146.47;1793794;79;26084;-58
2021/03/13 00:13:38;;;;;;;44.88;24.57;;;;;;;-0.34;68.88;101141.36;1793903;79;25675;-59
2021/03/13 00:16:07;;;;;;;45.48;25.40;;;;;;;-0.34;68.90;101141.36;1793874;79;26420;-58
2021/03/13 00:18:37;;;;;;;44.73;24.25;;;;;;;-0.33;68.75;101135.59;1791615;78;25714;-59
2021/03/13 00:21:06;;;;;;;42.55;23.27;;;;;;;-0.32;68.79;101128.06;1793507;79;27594;-58
2021/03/13 00:23:34;;;;;;;44.63;24.12;;;;;;;-0.36;68.54;101127.33;1780036;79;25699;-58
2021/03/13 00:26:03;;;;;;;46.35;25.35;;;;;;;-0.46;68.43;101128.58;1762313;81;25669;-59
2021/03/13 00:28:31;;;;;;;42.00;25.57;;;;;;;-0.57;68.52;101136.91;1764487;79;25660;-58
2021/03/13 00:30:59;;;;;;;50.23;25.72;;;;;;;-0.64;68.61;101131.45;1762383;79;25643;-58
2021/03/13 00:33:31;;;;;;;47.43;26.50;;;;;;;-0.69;69.01;101120.16;1768449;79;28238;-58
2021/03/13 00:35:58;;;;;;;47.33;26.82;;;;;;;-0.69;69.01;101120.16;1762451;79;26754;-58
2021/03/13 00:38:26;;;;;;;45.30;25.85;;;;;;;-0.67;69.22;101115.22;1771618;79;25508;-59
2021/03/13 00:40:54;;;;;;;47.70;25.35;;;;;;;-0.64;69.19;101120.88;1793607;79;26477;-58
2021/03/13 00:43:23;;;;;;;43.10;25.12;;;;;;;-0.69;68.99;101118.41;1793420;78;26065;-59
2021/03/13 00:45:51;;;;;;;45.70;24.37;;;;;;;-0.70;69.08;101113.16;1762287;81;28501;-58
2021/03/13 00:48:19;;;;;;;42.67;25.77;;;;;;;-0.68;69.26;101115.28;1776187;79;25609;-58
2021/03/13 00:50:48;;;;;;;45.95;25.35;;;;;;;-0.67;69.39;101117.86;1793875;78;25625;-58
2021/03/13 00:53:16;;;;;;;42.75;25.92;;;;;;;-0.68;69.35;101117.48;1793636;79;26018;-58
2021/03/13 00:55:44;;;;;;;46.00;25.60;;;;;;;-0.64;69.52;101119.56;1793954;79;25677;-58
2021/03/13 00:58:14;;;;;;;42.27;23.52;;;;;;;-0.60;69.49;101122.95;1783530;79;27503;-58
2021/03/13 01:00:44;;;;;;;53.83;28.23;;;;;;;-0.60;69.53;101125.59;1779087;78;25679;-59
2021/03/13 01:03:15;;;;;;;48.80;25.20;;;;;;;-0.61;69.24;101125.19;1755677;81;25757;-59
2021/03/13 01:05:43;;;;;;;45.15;25.15;;;;;;;-0.60;69.24;101118.98;1765319;81;26419;-59
2021/03/13 01:08:11;;;;;;;43.70;24.02;;;;;;;-0.59;69.40;101118.92;1821082;77;26062;-59
2021/03/13 01:10:42;;;;;;;47.48;26.42;;;;;;;-0.58;69.50;101123.29;1792681;79;27530;-59
2021/03/13 01:13:12;;;;;;;42.90;24.60;;;;;;;-0.56;69.30;101117.94;1793356;79;25558;-59
2021/03/13 01:15:43;;;;;;;50.40;26.05;;;;;;;-0.56;69.43;101113.97;1793936;79;25619;-59
2021/03/13 01:18:12;;;;;;;44.27;25.23;;;;;;;-0.57;69.33;101122.81;1790513;79;25960;-59
2021/03/13 01:20:42;;;;;;;42.03;24.98;;;;;;;-0.56;69.14;101125.87;1762286;81;26066;-59
2021/03/13 01:23:10;;;;;;;45.00;25.12;;;;;;;-0.57;69.01;101120.17;1762253;80;27512;-59
2021/03/13 01:25:39;;;;;;;41.10;23.10;;;;;;;-0.60;68.92;101123.80;1762351;81;25696;-59
2021/03/13 01:28:07;;;;;;;43.52;24.70;;;;;;;-0.61;69.11;101126.51;1764029;79;26017;-59
2021/03/13 01:30:37;;;;;;;39.85;23.32;;;;;;;-0.62;69.10;101135.34;1770909;79;26053;-59
2021/03/13 01:33:06;;;;;;;40.35;23.35;;;;;;;-0.67;69.07;101135.04;1780973;79;26082;-59
2021/03/13 01:35:35;;;;;;;47.48;24.43;;;;;;;-0.70;69.32;101139.13;1762407;81;28093;-59
2021/03/13 01:38:04;;;;;;;50.88;25.80;;;;;;;-0.69;69.46;101122.37;1780661;79;26054;-58
2021/03/13 01:40:32;;;;;;;44.10;24.50;;;;;;;-0.66;69.33;101125.35;1762374;81;25794;-58
2021/03/13 01:43:01;;;;;;;43.90;25.15;;;;;;;-0.66;69.36;101124.87;1762356;80;26448;-58
2021/03/13 01:45:30;;;;;;;41.18;24.35;;;;;;;-0.66;69.39;101122.23;1762214;81;26095;-58
2021/03/13 01:47:59;;;;;;;45.45;26.33;;;;;;;-0.65;69.39;101122.64;1762288;80;27641;-58
2021/03/13 01:50:30;;;;;;;45.35;24.92;;;;;;;-0.65;69.21;101119.16;1764280;79;26114;-58
2021/03/13 01:52:58;;;;;;;44.90;24.98;;;;;;;-0.68;69.26;101115.28;1787346;79;25741;-58
2021/03/13 01:55:28;;;;;;;49.65;26.77;;;;;;;-0.69;69.16;101116.20;1792095;79;25718;-58
2021/03/13 01:57:59;;;;;;;47.50;25.65;;;;;;;-0.68;69.17;101108.23;1762234;80;25669;-59
2021/03/13 02:00:29;;;;;;;45.83;25.60;;;;;;;-0.68;69.17;101110.00;1793611;79;27558;-59
2021/03/13 02:02:59;;;;;;;45.30;24.75;;;;;;;-0.70;69.24;101099.50;1767378;79;25801;-59
2021/03/13 02:05:34;;;;;;;43.13;24.95;;;;;;;-0.70;69.03;101098.18;1762268;81;25643;-59
2021/03/13 02:08:17;;;;;;;42.53;24.30;;;;;;;-0.74;68.82;101095.70;1762379;81;25688;-60
2021/03/13 02:11:35;;;;;;;40.75;24.65;;;;;;;-0.84;68.85;101088.11;1762653;81;25685;-59
2021/03/13 02:14:41;;;;;;;40.70;22.80;;;;;;;-0.89;68.88;101097.11;1762463;81;28348;-59
2021/03/13 02:17:31;;;;;;;41.75;22.82;;;;;;;-0.94;68.94;101093.31;1762321;80;25672;-58
2021/03/13 02:20:51;;;;;;;42.80;24.90;;;;;;;-0.96;68.98;101090.73;1763155;79;26446;-59
2021/03/13 02:23:22;;;;;;;43.02;23.42;;;;;;;-0.97;69.00;101088.13;1762133;80;25754;-60
2021/03/13 02:26:29;;;;;;;44.13;25.40;;;;;;;-0.99;68.69;101084.23;1762387;81;25853;-60
2021/03/13 02:29:40;;;;;;;40.85;25.85;;;;;;;-1.01;68.95;101086.05;1780277;79;27530;-60
2021/03/13 02:32:15;;;;;;;47.08;24.92;;;;;;;-0.98;69.23;101093.00;1792686;80;25674;-60
2021/03/13 02:34:46;;;;;;;50.38;26.97;;;;;;;-0.97;69.23;101091.65;1725397;82;25458;-60
2021/03/13 02:37:22;;;;;;;45.88;25.35;;;;;;;-0.95;69.25;101087.19;1725872;81;25685;-60
2021/03/13 02:39:56;;;;;;;46.83;25.68;;;;;;;-0.93;69.32;101080.52;1724984;82;25905;-60
2021/03/13 02:42:27;;;;;;;48.20;25.10;;;;;;;-0.91;69.19;101076.48;1725817;81;27527;-59
2021/03/13 02:44:56;;;;;;;45.30;26.80;;;;;;;-0.92;69.16;101074.32;1725526;82;26033;-59
2021/03/13 02:47:27;;;;;;;47.88;26.82;;;;;;;-0.91;69.46;101069.45;1696037;82;25703;-59
2021/03/13 02:49:58;;;;;;;39.67;23.98;;;;;;;-0.94;69.19;101070.86;1792676;79;25694;-59
2021/03/13 02:52:29;;;;;;;45.67;25.65;;;;;;;-0.93;69.09;101074.35;1753042;80;25665;-59
2021/03/13 02:55:02;;;;;;;40.08;24.25;;;;;;;-0.92;69.36;101074.76;1762195;81;27538;-59
2021/03/13 02:57:32;;;;;;;43.73;25.52;;;;;;;-0.89;69.39;101072.87;1762304;80;25739;-60
2021/03/13 03:00:02;;;;;;;46.40;26.87;;;;;;;-0.85;69.49;101063.93;1725022;81;25601;-59
2021/03/13 03:02:35;;;;;;;43.73;24.87;;;;;;;-0.79;69.39;101066.81;1685011;84;25708;-60
2021/03/13 03:05:06;;;;;;;49.00;25.80;;;;;;;-0.79;69.37;101069.45;1741052;81;25924;-59
2021/03/13 03:07:34;;;;;;;43.25;25.10;;;;;;;-0.77;69.34;101074.67;1762398;79;27587;-59
2021/03/13 03:10:07;;;;;;;55.20;25.17;;;;;;;-0.77;69.19;101085.23;1762817;79;25772;-59
2021/03/13 03:12:37;;;;;;;48.58;24.27;;;;;;;-0.75;69.20;101080.77;1762414;81;25601;-59
2021/03/13 03:15:08;;;;;;;46.88;24.23;;;;;;;-0.75;69.17;101078.13;1762396;81;25607;-59
2021/03/13 03:17:39;;;;;;;41.75;23.83;;;;;;;-0.77;69.04;101071.59;1717219;81;25736;-59
2021/03/13 03:20:11;;;;;;;46.00;26.15;;;;;;;-0.74;69.16;101071.93;1763212;79;27586;-59
2021/03/13 03:22:40;;;;;;;41.55;24.18;;;;;;;-0.73;69.20;101071.02;1762049;81;26311;-60
2021/03/13 03:25:12;;;;;;;43.23;24.52;;;;;;;-0.70;69.43;101066.92;1761777;79;25650;-59
2021/03/13 03:27:53;;;;;;;47.98;26.07;;;;;;;-0.66;69.40;101071.19;1762685;79;25766;-59
2021/03/13 03:30:28;;;;;;;47.65;25.65;;;;;;;-0.60;69.46;101068.78;1761297;81;25640;-58
2021/03/13 03:33:09;;;;;;;47.17;25.57;;;;;;;-0.50;69.52;101074.97;1832112;76;25627;-59
2021/03/13 03:35:41;;;;;;;44.48;24.52;;;;;;;-0.53;69.44;101072.44;1735333;82;26107;-59
2021/03/13 03:38:11;;;;;;;41.73;25.08;;;;;;;-0.53;69.17;101079.52;1736441;82;28440;-59
2021/03/13 03:40:41;;;;;;;51.75;25.08;;;;;;;-0.52;69.24;101078.60;1711310;82;25713;-60
2021/03/13 03:43:22;;;;;;;51.08;27.07;;;;;;;-0.53;69.50;101083.48;1741561;80;25739;-60
2021/03/13 03:45:57;;;;;;;48.35;26.57;;;;;;;-0.55;69.51;101076.94;1767350;79;25799;-59
2021/03/13 03:48:28;;;;;;;48.85;25.40;;;;;;;-0.54;69.53;101077.78;1766712;81;25671;-59
2021/03/13 03:50:59;;;;;;;47.83;26.20;;;;;;;-0.58;69.63;101078.84;1773432;79;27735;-59
2021/03/13 03:53:37;;;;;;;47.90;26.23;;;;;;;-0.60;69.71;101076.70;1744657;81;25917;-60
2021/03/13 03:56:08;;;;;;;45.88;25.08;;;;;;;-0.61;69.57;101073.19;1777145;80;25769;-60
2021/03/13 03:58:39;;;;;;;50.43;27.75;;;;;;;-0.59;69.57;101070.03;1733240;82;25812;-59
2021/03/13 04:01:09;;;;;;;40.92;25.25;;;;;;;-0.59;69.55;101059.46;1730371;81;25678;-59
2021/03/13 04:03:51;;;;;;;43.13;25.68;;;;;;;-0.61;69.48;101067.90;1744299;80;28457;-59
2021/03/13 04:06:21;;;;;;;45.88;24.85;;;;;;;-0.62;69.41;101070.13;1767355;79;26336;-59
2021/03/13 04:08:54;;;;;;;43.35;24.72;;;;;;;-0.69;69.37;101066.00;1766637;81;25996;-59
2021/03/13 04:11:24;;;;;;;54.53;26.45;;;;;;;-0.73;69.55;101072.34;1767381;79;25674;-59
2021/03/13 04:13:56;;;;;;;52.88;27.45;;;;;;;-0.73;69.73;101077.62;1737547;81;25518;-59
2021/03/13 04:16:29;;;;;;;47.80;25.57;;;;;;;-0.71;69.91;101075.76;1767368;80;28562;-59
2021/03/13 04:19:02;;;;;;;47.03;25.85;;;;;;;-0.71;69.61;101068.71;1754361;81;26415;-59
2021/03/13 04:21:31;;;;;;;52.10;28.07;;;;;;;-0.68;69.74;101067.29;1711141;83;26280;-59
2021/03/13 04:24:00;;;;;;;52.48;28.35;;;;;;;-0.69;69.67;101069.97;1711294;83;25612;-59
2021/03/13 04:26:30;;;;;;;47.43;25.85;;;;;;;-0.67;69.75;101071.63;1738945;79;25822;-60
2021/03/13 04:28:58;;;;;;;47.15;25.62;;;;;;;-0.63;69.86;101065.80;1758465;81;29825;-60
2021/03/13 04:31:31;;;;;;;51.45;26.68;;;;;;;-0.58;70.01;101065.62;1754492;81;25891;-60
2021/03/13 04:34:01;;;;;;;45.60;26.77;;;;;;;-0.56;70.05;101073.02;1738709;81;25804;-60
2021/03/13 04:36:32;;;;;;;50.23;27.05;;;;;;;-0.53;70.19;101059.69;1730900;80;25685;-60
2021/03/13 04:39:04;;;;;;;48.63;28.07;;;;;;;-0.47;70.22;101054.16;1716237;82;25748;-60
2021/03/13 04:41:34;;;;;;;48.85;25.88;;;;;;;-0.38;70.44;101058.26;1794426;79;27494;-59
2021/03/13 04:44:05;;;;;;;46.18;26.75;;;;;;;-0.30;70.39;101054.86;1793839;79;25654;-60
2021/03/13 04:46:37;;;;;;;48.02;26.95;;;;;;;-0.21;70.37;101062.88;1779928;79;25721;-59
2021/03/13 04:49:07;;;;;;;43.08;25.77;;;;;;;-0.12;70.51;101062.52;1746329;80;26075;-60
2021/03/13 04:51:37;;;;;;;46.35;27.07;;;;;;;-0.14;70.98;101059.53;1719939;81;25633;-59
2021/03/13 04:54:07;;;;;;;52.15;28.47;;;;;;;-0.22;70.98;101060.70;1784097;79;27534;-60
2021/03/13 04:56:36;;;;;;;44.95;26.93;;;;;;;-0.26;71.11;101056.91;1782904;79;26085;-60
2021/03/13 04:59:04;;;;;;;54.65;28.95;;;;;;;-0.22;71.15;101050.13;1783165;79;25613;-60
2021/03/13 05:01:34;;;;;;;61.60;32.00;;;;;;;-0.14;72.11;101044.98;1781628;79;26123;-60
2021/03/13 05:04:02;;;;;;;58.40;30.88;;;;;;;-0.15;71.35;101042.82;1743543;81;25680;-60
2021/03/13 05:06:30;;;;;;;55.78;28.95;;;;;;;-0.12;71.57;101045.80;1721910;82;28527;-59
2021/03/13 05:08:58;;;;;;;56.00;29.85;;;;;;;-0.06;71.57;101048.19;1717041;82;25735;-59
2021/03/13 05:11:26;;;;;;;45.88;27.40;;;;;;;0.04;71.44;101061.93;1721058;82;25768;-60
2021/03/13 05:13:53;;;;;;;57.58;30.95;;;;;;;0.08;71.28;101047.20;1727426;82;25807;-60
2021/03/13 05:16:21;;;;;;;51.28;28.12;;;;;;;0.07;71.21;101053.41;1724409;82;25735;-59
2021/03/13 05:18:49;;;;;;;53.70;30.35;;;;;;;0.09;71.07;101070.53;1723120;82;27693;-59
2021/03/13 05:21:18;;;;;;;51.05;30.02;;;;;;;0.12;70.99;101059.83;1793878;79;25721;-59
2021/03/13 05:23:46;;;;;;;55.38;31.00;;;;;;;0.13;70.99;101054.95;1792407;78;25976;-60
2021/03/13 05:26:14;;;;;;;53.52;30.60;;;;;;;0.14;71.13;101055.31;1779669;79;26208;-60
2021/03/13 05:28:42;;;;;;;55.08;31.05;;;;;;;0.16;70.95;101068.03;1772446;79;25765;-60
2021/03/13 05:31:10;;;;;;;58.28;31.05;;;;;;;0.21;70.78;101075.78;1793896;79;27531;-59
2021/03/13 05:33:40;;;;;;;60.12;33.30;;;;;;;0.26;70.81;101087.91;1783030;79;26292;-60
2021/03/13 05:36:11;;;;;;;62.85;33.60;;;;;;;0.21;70.76;101088.57;1730765;81;25679;-60
2021/03/13 05:38:39;;;;;;;53.35;31.33;;;;;;;0.23;70.62;101097.76;1729450;81;25811;-60
2021/03/13 05:41:08;;;;;;;56.90;31.68;;;;;;;0.28;70.81;101097.09;1750544;81;25746;-59
2021/03/13 05:43:39;;;;;;;52.88;30.75;;;;;;;0.36;71.29;101102.94;1750833;81;28052;-60
2021/03/13 05:46:09;;;;;;;61.65;31.00;;;;;;;0.41;70.88;101091.72;1750644;81;26306;-60
2021/03/13 05:48:39;;;;;;;54.53;29.90;;;;;;;0.52;70.91;101101.02;1740014;81;25680;-60
2021/03/13 05:51:07;;;;;;;58.05;33.23;;;;;;;0.61;70.84;101101.48;1721112;81;25674;-59
2021/03/13 05:53:35;;;;;;;61.70;32.88;;;;;;;0.65;70.57;101100.88;1720941;81;25685;-60
2021/03/13 05:56:05;;;;;;;59.70;33.10;;;;;;;0.69;70.42;101102.94;1720874;82;27525;-59
2021/03/13 05:58:33;;;;;;;63.80;35.40;;;;;;;0.78;70.51;101103.42;1736241;81;25762;-60
2021/03/13 06:01:02;;;;;;;72.03;38.25;;;;;;;0.80;70.13;101098.05;1738151;82;25716;-59
2021/03/13 06:03:33;;;;;;;68.35;37.75;;;;;;;0.78;70.17;101104.75;1720742;82;25725;-61
2021/03/13 06:06:04;;;;;;;84.77;40.38;;;;;;;0.75;70.04;101108.00;1720904;82;26355;-60
2021/03/13 06:08:32;;;;;;;69.42;38.15;;;;;;;0.82;70.25;101112.55;1712845;81;27601;-60
2021/03/13 06:10:59;;;;;;;76.60;37.80;;;;;;;0.83;69.85;101115.15;1750725;81;25660;-60
2021/03/13 06:13:28;;;;;;;64.12;36.05;;;;;;;0.90;70.12;101121.91;1749226;81;25709;-60
2021/03/13 06:15:55;;;;;;;75.25;39.75;;;;;;;0.93;70.02;101123.55;1734364;81;26046;-60
2021/03/13 06:18:23;;;;;;;55.28;33.48;;;;;;;0.95;70.03;101123.03;1737713;81;25766;-60
2021/03/13 06:20:51;;;;;;;63.98;34.00;;;;;;;1.04;70.13;101123.09;1720937;83;27657;-59
2021/03/13 06:23:19;;;;;;;57.62;31.77;;;;;;;1.04;69.93;101125.29;1720772;81;25682;-59
2021/03/13 06:25:48;;;;;;;55.78;33.63;;;;;;;1.08;69.97;101126.02;1720843;83;25673;-59
2021/03/13 06:28:22;;;;;;;55.60;31.02;;;;;;;1.13;69.93;101131.11;1732138;81;25721;-60
2021/03/13 06:30:51;;;;;;;50.20;31.23;;;;;;;1.20;70.02;101136.55;1750892;80;25771;-60
2021/03/13 06:33:28;;;;;;;56.83;32.00;;;;;;;1.27;69.77;101139.31;1728897;81;27540;-59
2021/03/13 06:36:00;;;;;;;50.08;29.50;;;;;;;1.36;69.71;101142.04;1704936;81;25672;-59
2021/03/13 06:38:32;;;;;;;52.35;30.08;;;;;;;1.49;69.93;101140.55;1722659;82;25747;-60
2021/03/13 06:41:19;;;;;;;48.23;27.90;;;;;;;1.64;70.07;101145.63;1793684;79;25768;-60
2021/03/13 06:43:56;;;;;;;52.90;30.32;;;;;;;1.78;69.94;101141.03;1762308;80;25828;-59
2021/03/13 06:46:30;;;;;;;52.85;31.15;;;;;;;1.89;69.62;101153.79;1769878;79;28462;-58
2021/03/13 06:49:00;;;;;;;56.40;32.40;;;;;;;2.01;69.55;101154.56;1793779;79;25719;-58
2021/03/13 06:51:37;;;;;;;56.45;31.55;;;;;;;2.10;69.02;101156.38;1793581;79;25785;-59
2021/03/13 06:54:15;;;;;;;54.10;31.00;;;;;;;2.14;68.83;101165.94;1764622;79;25695;-59
2021/03/13 06:56:56;;;;;;;53.73;29.98;;;;;;;2.18;68.75;101163.52;1793744;79;25776;-59
2021/03/13 06:59:33;;;;;;;52.23;30.50;;;;;;;2.24;68.60;101147.29;1791952;79;27516;-59
2021/03/13 07:02:07;;;;;;;52.17;31.27;;;;;;;2.23;68.24;101146.05;1819005;78;25876;-59
2021/03/13 07:04:44;;;;;;;56.15;32.42;;;;;;;2.18;68.49;101148.92;1786733;78;25573;-59
2021/03/13 07:07:16;;;;;;;54.10;31.00;;;;;;;2.23;68.56;101149.58;1783641;79;25670;-59
2021/03/13 07:09:54;;;;;;;50.73;31.50;;;;;;;2.25;68.41;101153.00;1778908;79;25733;-59
2021/03/13 07:12:40;;;;;;;51.75;30.92;;;;;;;2.33;68.64;101157.95;1774032;78;27532;-59
2021/03/13 07:15:21;;;;;;;52.35;29.00;;;;;;;2.42;68.62;101157.51;1787445;79;25716;-60
2021/03/13 07:17:58;;;;;;;50.65;29.77;;;;;;;2.42;68.72;101150.88;1774191;79;25616;-60
2021/03/13 07:20:33;;;;;;;55.83;31.62;;;;;;;2.39;68.68;101160.30;1776527;78;25770;-60
2021/03/13 07:23:04;;;;;;;58.40;31.10;;;;;;;2.34;68.96;101155.70;1775341;78;26254;-58
2021/03/13 07:25:34;;;;;;;54.95;31.50;;;;;;;2.29;68.89;101159.89;1779833;79;27735;-58
2021/03/13 07:28:04;;;;;;;53.25;31.05;;;;;;;2.29;68.99;101160.34;1720895;83;26094;-59
2021/03/13 07:30:35;;;;;;;50.58;29.50;;;;;;;2.32;69.07;101161.53;1689474;83;25571;-59
2021/03/13 07:33:11;;;;;;;51.42;30.45;;;;;;;2.42;69.28;101164.62;1737810;81;25717;-59
2021/03/13 07:35:47;;;;;;;54.25;30.00;;;;;;;2.43;69.20;101162.34;1749376;81;26160;-59
2021/03/13 07:38:15;;;;;;;;;;;;;;;2.44;69.26;101157.42;1748720;81;28447;-59
2021/03/13 07:40:47;;;;;;;65.75;31.93;;;;;;;2.50;69.45;101159.33;1748994;82;25723;-59
2021/03/13 07:43:17;;;;;;;55.95;31.65;;;;;;;2.49;69.20;101166.05;1747822;80;25731;-59
2021/03/13 07:45:50;;;;;;;59.45;30.50;;;;;;;2.59;69.45;101163.79;1744197;80;25700;-59
2021/03/13 07:48:19;;;;;;;61.80;30.52;;;;;;;2.72;69.77;101159.61;1740245;81;25675;-59
2021/03/13 07:50:48;;;;;;;60.73;31.37;;;;;;;2.72;69.14;101164.92;1720748;81;27538;-58
2021/03/13 07:53:17;;;;;;;51.80;31.30;;;;;;;2.78;69.10;101164.61;1723962;81;25730;-58
2021/03/13 07:55:52;;;;;;;57.58;32.45;;;;;;;2.98;69.21;101167.59;1756322;80;25514;-59
2021/03/13 07:58:22;;;;;;;57.48;31.70;;;;;;;3.13;68.80;101163.30;1740938;81;25783;-59
2021/03/13 08:00:51;;;;;;;59.88;33.78;;;;;;;3.20;68.39;101161.64;1747718;81;25720;-58
2021/03/13 08:03:37;;;;;;;69.55;34.58;;;;;;;3.19;68.46;101159.47;1764000;81;27549;-59
2021/03/13 08:06:17;;;;;;;57.65;33.38;;;;;;;3.24;68.53;101164.06;1733383;80;26149;-59
2021/03/13 08:08:50;;;;;;;64.65;35.08;;;;;;;3.18;68.15;101165.72;1743737;81;25820;-59
2021/03/13 08:11:20;;;;;;;58.30;33.67;;;;;;;3.16;67.87;101154.30;1723406;81;25549;-60
2021/03/13 08:13:54;;;;;;;61.53;32.38;;;;;;;3.13;67.92;101157.14;1734509;81;26750;-59
2021/03/13 08:16:42;;;;;;;68.80;35.98;;;;;;;3.21;67.68;101152.73;1750568;81;28936;-59
2021/03/13 08:19:37;;;;;;;68.47;35.68;;;;;;;3.34;67.88;101148.52;1730395;81;26374;-59
2021/03/13 08:22:23;;;;;;;61.95;34.80;;;;;;;3.57;67.56;101145.09;1721084;82;25676;-59
2021/03/13 08:24:54;;;;;;;59.27;33.23;;;;;;;3.73;67.52;101145.14;1738272;81;25688;-59
2021/03/13 08:27:41;;;;;;;58.30;33.98;;;;;;;3.85;67.48;101148.94;1733384;81;26057;-59
2021/03/13 08:30:23;;;;;;;65.15;36.17;;;;;;;3.97;67.41;101148.73;1745543;80;27526;-59
2021/03/13 08:33:07;;;;;;;61.50;35.70;;;;;;;4.01;66.90;101155.13;1737423;81;25854;-59
2021/03/13 08:35:44;;;;;;;59.83;33.85;;;;;;;4.13;66.88;101156.73;1733108;82;25769;-59
2021/03/13 08:38:14;;;;;;;58.00;33.40;;;;;;;4.26;66.81;101165.75;1773019;79;26264;-59
2021/03/13 08:40:52;;;;;;;59.63;31.62;;;;;;;4.36;66.65;101162.12;1766619;79;25500;-62
2021/03/13 08:43:41;;;;;;;61.75;32.30;;;;;;;4.50;65.97;101164.00;1793625;79;27527;-59
2021/03/13 08:46:47;;;;;;;67.37;34.33;;;;;;;4.53;65.61;101158.48;1791447;79;25750;-59
2021/03/13 08:49:32;;;;;;;58.70;31.80;;;;;;;4.62;65.62;101164.61;1791155;79;26258;-59
2021/03/13 08:52:11;;;;;;;52.27;30.12;;;;;;;4.73;65.54;101154.69;1793803;79;25705;-59
2021/03/13 08:54:44;;;;;;;56.37;28.60;;;;;;;4.79;64.73;101160.14;1793880;79;25477;-59
2021/03/13 08:57:15;;;;;;;52.80;27.93;;;;;;;4.88;65.05;101159.61;1793655;79;27657;-58
2021/03/13 09:00:00;;;;;;;49.93;26.15;;;;;;;5.03;65.21;101151.16;1764902;79;25790;-58
2021/03/13 09:02:38;;;;;;;57.40;30.55;;;;;;;5.19;65.24;101155.11;1773319;79;25675;-59
2021/03/13 09:05:17;;;;;;;51.00;28.75;;;;;;;5.35;65.38;101157.72;1784249;79;25735;-59
2021/03/13 09:07:49;;;;;;;47.27;28.00;;;;;;;5.54;65.64;101157.44;1777775;79;25645;-58
2021/03/13 09:10:18;;;;;;;50.05;29.27;;;;;;;5.69;64.87;101151.64;1772630;79;27520;-59
2021/03/13 09:12:47;;;;;;;59.10;28.60;;;;;;;5.83;64.89;101157.95;1773858;79;25787;-58
2021/03/13 09:15:17;;;;;;;49.60;28.12;;;;;;;6.03;64.61;101158.05;1780483;79;25677;-58
2021/03/13 09:17:45;;;;;;;53.70;30.48;;;;;;;6.20;64.24;101149.81;1768018;78;25911;-58
2021/03/13 09:20:17;;;;;;;48.65;27.40;;;;;;;6.41;64.31;101138.67;1777229;78;26527;-59
2021/03/13 09:22:48;;;;;;;48.83;29.00;;;;;;;6.62;63.25;101147.12;1781482;79;27649;-58
2021/03/13 09:25:20;;;;;;;54.03;29.50;;;;;;;6.81;63.05;101137.88;1778744;79;25686;-59
2021/03/13 09:27:53;;;;;;;43.95;28.02;;;;;;;6.95;62.09;101128.94;1777438;78;25880;-58
2021/03/13 09:30:25;;;;;;;49.90;29.20;;;;;;;7.11;61.39;101125.58;1746884;80;25767;-58
2021/03/13 09:32:54;;;;;;;49.42;29.52;;;;;;;7.28;61.36;101128.91;1738203;80;25684;-58
2021/03/13 09:35:25;;;;;;;53.17;30.77;;;;;;;7.49;61.47;101118.53;1745466;80;27542;-58
2021/03/13 09:37:53;;;;;;;60.78;31.15;;;;;;;7.80;60.52;101114.53;1778137;79;25676;-58
2021/03/13 09:40:26;;;;;;;60.23;33.08;;;;;;;8.17;60.68;101112.84;1792975;79;25675;-58
2021/03/13 09:42:55;;;;;;;57.88;32.75;;;;;;;8.66;60.67;101115.92;1797408;78;25770;-58
2021/03/13 09:45:25;;;;;;;54.08;31.75;;;;;;;9.07;59.62;101108.37;1798033;79;26125;-58
2021/03/13 09:47:59;;;;;;;48.92;30.40;;;;;;;9.41;58.96;101108.47;1780101;79;27528;-59
2021/03/13 09:50:34;;;;;;;55.00;30.77;;;;;;;9.74;58.27;101110.79;1748427;80;25719;-58
2021/03/13 09:53:06;;;;;;;49.15;29.27;;;;;;;10.09;57.62;101118.31;1744774;80;25680;-59
2021/03/13 09:55:36;;;;;;;45.50;29.18;;;;;;;10.52;57.10;101108.13;1800136;79;25683;-58
2021/03/13 09:58:05;;;;;;;45.55;26.87;;;;;;;10.84;56.39;101113.97;1799739;78;25600;-59
2021/03/13 10:00:42;;;;;;;49.85;27.40;;;;;;;11.23;55.49;101110.22;1785336;79;27501;-59
2021/03/13 10:03:14;;;;;;;45.88;29.10;;;;;;;11.85;54.06;101099.45;1777781;79;26144;-60
2021/03/13 10:05:44;;;;;;;47.48;29.48;;;;;;;12.55;51.83;101095.91;1798769;79;25416;-60
2021/03/13 10:08:13;;;;;;;38.30;25.62;;;;;;;13.20;52.28;101089.05;1794552;79;25694;-60
2021/03/13 10:10:51;;;;;;;38.85;28.10;;;;;;;13.83;50.22;101092.99;1799860;78;26161;-57
2021/03/13 10:13:21;;;;;;;40.50;25.75;;;;;;;14.25;48.90;101087.05;1790434;79;27514;-57
2021/03/13 10:15:50;;;;;;;34.98;22.50;;;;;;;14.54;48.21;101081.94;1795258;79;26092;-60
2021/03/13 10:18:20;;;;;;;34.53;22.48;;;;;;;14.76;47.06;101087.90;1787387;79;25715;-60
2021/03/13 10:20:53;;;;;;;40.85;21.35;;;;;;;14.96;46.48;101082.66;1779178;78;25699;-58
2021/03/13 10:23:35;;;;;;;27.27;14.38;;;;;;;15.27;45.40;101078.14;1781997;79;26155;-60
2021/03/13 10:26:08;;;;;;;30.82;16.10;;;;;;;15.33;42.47;101070.72;1775366;79;27509;-60
2021/03/13 10:28:40;;;;;;;24.92;14.95;;;;;;;15.40;43.67;101068.22;1783973;79;25722;-61
2021/03/13 10:31:13;;;;;;;27.20;15.23;;;;;;;15.69;43.85;101071.06;1786583;78;25711;-60
2021/03/13 10:33:46;;;;;;;29.63;14.00;;;;;;;15.60;43.50;101072.03;1776214;78;25729;-60
2021/03/13 10:36:17;;;;;;;26.07;14.77;;;;;;;15.26;42.79;101073.73;1800997;78;26465;-61
2021/03/13 10:38:51;;;;;;;23.32;13.95;;;;;;;14.99;43.41;101072.88;1742248;80;27529;-60
2021/03/13 10:41:23;;;;;;;25.55;8.43;;;;;;;14.69;42.32;101077.70;1730921;82;25719;-60
2021/03/13 10:43:52;;;;;;;22.60;8.68;;;;;;;14.18;40.70;101080.03;1734321;82;25631;-60
2021/03/13 10:46:26;;;;;;;23.57;8.55;;;;;;;13.66;41.58;101074.34;1734702;82;25556;-60
2021/03/13 10:48:59;;;;;;;19.82;8.38;;;;;;;13.30;42.38;101070.46;1731432;82;26098;-60
2021/03/13 10:51:45;;;;;;;14.70;8.98;;;;;;;12.92;42.39;101058.74;1735109;82;27583;-60
2021/03/13 10:54:30;;;;;;;13.90;8.40;;;;;;;12.95;42.84;101065.73;1734743;82;25676;-58
2021/03/13 10:57:07;;;;;;;15.63;8.50;;;;;;;13.70;42.52;101074.41;1734917;82;25661;-57
2021/03/13 10:59:36;;;;;;;26.93;7.28;;;;;;;15.02;40.79;101058.15;1706144;82;26468;-60
2021/03/13 11:02:05;;;;;;;12.82;6.90;;;;;;;16.14;39.06;101047.87;1765154;79;25839;-60
2021/03/13 11:04:33;;;;;;;15.03;7.10;;;;;;;17.21;36.33;101054.70;1765062;80;28491;-61
2021/03/13 11:07:01;;;;;;;9.08;6.28;;;;;;;17.10;34.68;101057.77;1764670;79;26141;-60
2021/03/13 11:09:29;;;;;;;14.93;7.15;;;;;;;16.61;34.19;101073.55;1764304;79;25670;-60
2021/03/13 11:11:57;;;;;;;20.27;7.12;;;;;;;16.12;36.44;101069.73;1762362;81;25729;-59
2021/03/13 11:14:25;;;;;;;15.40;7.65;;;;;;;16.26;35.62;101065.52;1725546;82;25692;-59
2021/03/13 11:16:52;;;;;;;18.73;11.88;;;;;;;15.99;35.10;101074.79;1712674;82;27584;-59
2021/03/13 11:19:24;;;;;;;19.37;8.93;;;;;;;15.21;37.69;101077.41;1791303;79;26181;-59
2021/03/13 11:21:50;;;;;;;16.97;7.45;;;;;;;14.67;37.97;101071.58;1793682;79;25703;-59
2021/03/13 11:24:20;;;;;;;15.38;7.75;;;;;;;14.19;38.50;101080.91;1793552;78;25843;-59
2021/03/13 11:26:48;;;;;;;17.30;8.10;;;;;;;13.69;38.96;101076.25;1787405;79;26097;-59
2021/03/13 11:29:17;;;;;;;11.18;6.95;;;;;;;13.46;39.93;101078.47;1817374;78;27521;-59
2021/03/13 11:31:46;;;;;;;10.53;7.35;;;;;;;13.48;40.04;101068.88;1762218;81;25728;-59
2021/03/13 11:34:14;;;;;;;18.42;6.78;;;;;;;14.32;39.84;101065.13;1752879;81;25644;-59
2021/03/13 11:36:41;;;;;;;12.18;6.25;;;;;;;14.96;39.30;101058.27;1732419;82;25773;-59
2021/03/13 11:39:10;;;;;;;15.53;6.53;;;;;;;15.53;37.30;101048.80;1802274;78;25674;-59